Thunder radar more information blitzortung!


Radar de pluja more information rain snow radar


Visita la nostra xarxa de llocs de meteo:

Template documentation
and downloads

And another site



No particular awareness of the weather is required.    There are no Weather-warnings

Pagina Historial Weather Underground text

Diari Resum Novembre 1, 2017 Unitats:  Imperial    Mètric   Tant
« Previous Dia
SegĂźent Dia »
Diari Setmana Mensual Anual Personalitzada
  Maxima: Minima: Media:
Temperatura: 69.1 °F 50.9 °F 60.1 °F
Punt de rosada: 55.9 °F 43.9 °F 52 °F
Humitat: 89 % 61 % 75 %
Wind Speed: 10.5 mph 0 mph 2 mph
RĂ fegues de vent: 10.5 mph - -
Vent:- - South
Pression baro: 30.3 in 30.2 in -
Precipitacions: 0 in    
Historical Graphs
 
 
Dades de taula per Novembre 1, 2017
Temps Temperatura Punt de rosada Pression baro Vent Wind Speed RĂ fegues de vent Humitat Rainfall Rate (Hourly)
00:03 50.9 °F 43.9 °F 30.2 in SW 2.3 mph 2.3 mph 77 % 0 in
03:35 54.9 °F 47.5 °F 30.3 in East 2 mph 2 mph 76 % 0 in
03:45 55.2 °F 48 °F 30.3 in SE 1 mph 2 mph 77 % 0 in
03:55 55.6 °F 48 °F 30.3 in ESE 1 mph 2 mph 76 % 0 in
10:06 55.2 °F 47.5 °F 30.3 in SE 2.3 mph 2.3 mph 75 % 0 in
10:07 55.2 °F 47.5 °F 30.3 in SE 2.3 mph 2.3 mph 75 % 0 in
10:12 55 °F 47.3 °F 30.3 in ESE 2.3 mph 2.3 mph 75 % 0 in
10:17 55.4 °F 47.7 °F 30.3 in ESE 2.3 mph 2.3 mph 75 % 0 in
10:22 55.9 °F 48.6 °F 30.3 in ENE 2.3 mph 2.3 mph 76 % 0 in
10:27 55.9 °F 48 °F 30.3 in NNE 2.3 mph 2.3 mph 75 % 0 in
10:32 56.1 °F 48.4 °F 30.3 in NNE 2.3 mph 2.3 mph 75 % 0 in
10:37 56.3 °F 48 °F 30.3 in ENE 3.5 mph 3.5 mph 74 % 0 in
10:42 57.2 °F 48.9 °F 30.3 in NNW 3.5 mph 3.5 mph 74 % 0 in
10:47 57.9 °F 49.6 °F 30.3 in ENE 1.2 mph 1.2 mph 74 % 0 in
10:52 58.3 °F 50 °F 30.3 in NW 2.3 mph 2.3 mph 74 % 0 in
10:57 57.7 °F 48.7 °F 30.3 in NNE 2.4 mph 2.6 mph 72 % 0 in
11:02 56.5 °F 47.7 °F 30.3 in ENE 4.6 mph 4.6 mph 72 % 0 in
11:07 56.8 °F 48.4 °F 30.3 in NNE 1.2 mph 1.2 mph 73 % 0 in
11:12 57 °F 48 °F 30.3 in NNE 2.6 mph 3.1 mph 72 % 0 in
11:17 57.2 °F 48.4 °F 30.3 in ENE 2.4 mph 2.4 mph 72 % 0 in
11:22 57.2 °F 48.4 °F 30.2 in WSW 2.3 mph 2.3 mph 72 % 0 in
11:27 57.9 °F 48.9 °F 30.2 in ENE 1.2 mph   72 % 0 in
11:32 58.1 °F 49.1 °F 30.2 in ESE 2.6 mph 2.6 mph 72 % 0 in
11:37 58.5 °F 49.5 °F 30.2 in NNE 2.3 mph 2.3 mph 72 % 0 in
11:42 59 °F 49.6 °F 30.2 in WSW 3.5 mph 3.5 mph 71 % 0 in
11:47 59.9 °F 50.2 °F 30.2 in ESE 3.5 mph 3.5 mph 70 % 0 in
11:52 60.3 °F 50.4 °F 30.2 in ENE 1.4 mph 1.4 mph 70 % 0 in
11:57 59.9 °F 49.6 °F 30.2 in SE 3.5 mph 3.5 mph 69 % 0 in
12:02 60.8 °F 51.1 °F 30.2 in ESE 2 mph 2 mph 70 % 0 in
12:07 61.5 °F 51.6 °F 30.2 in ENE 2.3 mph 2.3 mph 70 % 0 in
12:12 61.7 °F 51.4 °F 30.2 in ENE 2.4 mph 2.4 mph 69 % 0 in
12:17 61.9 °F 51.3 °F 30.2 in ESE 2.3 mph 2.3 mph 68 % 0 in
12:22 62.2 °F 51.4 °F 30.2 in ENE 3.5 mph 3.5 mph 68 % 0 in
12:27 62.1 °F 51.4 °F 30.2 in SE 3.5 mph 3.5 mph 68 % 0 in
12:32 62.8 °F 52.2 °F 30.2 in ESE 2.3 mph 2.3 mph 68 % 0 in
12:37 63.5 °F 52.7 °F 30.2 in SSE 3.5 mph 3.5 mph 68 % 0 in
12:42 63.7 °F 52.5 °F 30.2 in SE 3.5 mph 3.5 mph 67 % 0 in
12:47 63.7 °F 52.9 °F 30.2 in WSW 2.3 mph   68 % 0 in
12:52 63.9 °F 52.7 °F 30.2 in ENE 2.9 mph 2.9 mph 67 % 0 in
12:57 63.9 °F 52.7 °F 30.2 in ENE 3.6 mph 3.6 mph 67 % 0 in
13:02 64.6 °F 53.4 °F 30.2 in SSE 2.6 mph 2.6 mph 67 % 0 in
13:07 64.2 °F 53.1 °F 30.2 in East 3.5 mph 3.5 mph 67 % 0 in
13:12 64.8 °F 53.4 °F 30.2 in SW 2.3 mph 2.3 mph 67 % 0 in
13:17 65.1 °F 54 °F 30.2 in SSE 3.5 mph   67 % 0 in
13:22 65.1 °F 54 °F 30.2 in East 1.2 mph 1.2 mph 67 % 0 in
13:27 64.9 °F 53.2 °F 30.2 in SSE 5.8 mph 5.8 mph 66 % 0 in
13:32 65.5 °F 54.1 °F 30.2 in South 4.3 mph 4.3 mph 67 % 0 in
13:37 66.4 °F 54.7 °F 30.2 in SW 3.5 mph 3.5 mph 66 % 0 in
13:42 66.9 °F 54.9 °F 30.2 in SSW 4.6 mph 4.6 mph 65 % 0 in
13:47 66.4 °F 54.3 °F 30.2 in ESE 2.3 mph 2.3 mph 65 % 0 in
13:52 66.2 °F 54.1 °F 30.2 in SSE 2.3 mph 2.3 mph 65 % 0 in
13:57 66.6 °F 54.3 °F 30.2 in South 3.5 mph 3.5 mph 65 % 0 in
14:02 67.1 °F 54.9 °F 30.2 in West 2.9 mph 2.9 mph 65 % 0 in
14:07 67.3 °F 54.7 °F 30.2 in SW 4.6 mph 4.6 mph 64 % 0 in
14:12 66.9 °F 54.3 °F 30.2 in SW 5.8 mph 5.8 mph 64 % 0 in
14:17 66.9 °F 54.3 °F 30.2 in WSW 2.4 mph 2.4 mph 64 % 0 in
14:22 67.5 °F 54.3 °F 30.2 in SE 5.8 mph 5.8 mph 63 % 0 in
14:27 68 °F 54.9 °F 30.2 in WSW 2.4 mph 2.4 mph 63 % 0 in
14:32 68.4 °F 54.9 °F 30.2 in SSW 2 mph 2 mph 62 % 0 in
14:37 69.1 °F 55.9 °F 30.2 in SW 4.6 mph 4.6 mph 63 % 0 in
14:42 68.7 °F 55.2 °F 30.2 in SW 4.6 mph 4.6 mph 62 % 0 in
14:47 68 °F 54 °F 30.2 in South 1.2 mph 1.2 mph 61 % 0 in
14:52 67.8 °F 54.9 °F 30.2 in SW 3.5 mph 3.5 mph 63 % 0 in
14:57 67.6 °F 54.1 °F 30.2 in SW 3.6 mph 3.6 mph 62 % 0 in
15:02 67.1 °F 53.6 °F 30.2 in SW 2.3 mph 2.4 mph 62 % 0 in
15:07 67.1 °F 53.6 °F 30.2 in SW 3.1 mph 3.1 mph 62 % 0 in
15:12 67.8 °F 54.3 °F 30.2 in SW 3.5 mph 3.5 mph 62 % 0 in
15:17 68.5 °F 54.7 °F 30.2 in SW 10.5 mph 10.5 mph 61 % 0 in
15:22 68.2 °F 54.1 °F 30.2 in SW 6.9 mph 6.9 mph 61 % 0 in
15:27 68.4 °F 54.3 °F 30.2 in SW 6.9 mph 6.9 mph 61 % 0 in
15:28 68.4 °F 54.3 °F 30.2 in WNW 6.9 mph 6.9 mph 61 % 0 in
15:33 67.3 °F 53.8 °F 30.2 in SW 5.8 mph 5.8 mph 62 % 0 in
15:38 67.3 °F 53.8 °F 30.2 in SSW 2.3 mph   62 % 0 in
15:43 68 °F 54 °F 30.2 in SW 4.6 mph 4.6 mph 61 % 0 in
15:48 68 °F 54 °F 30.2 in SW 6.9 mph 6.9 mph 61 % 0 in
15:53 67.5 °F 54 °F 30.2 in SSW 8.1 mph 8.1 mph 62 % 0 in
15:58 67.1 °F 53.6 °F 30.2 in SW 4.6 mph 4.6 mph 62 % 0 in
16:03 66.7 °F 53.2 °F 30.2 in SW 5.8 mph 5.8 mph 62 % 0 in
16:08 66.7 °F 53.8 °F 30.2 in South 4.6 mph 4.6 mph 63 % 0 in
16:13 66.4 °F 53.4 °F 30.2 in SW 5.8 mph 5.8 mph 63 % 0 in
16:18 66.2 °F 53.2 °F 30.2 in South 4.6 mph 4.6 mph 63 % 0 in
16:23 66.2 °F 53.2 °F 30.2 in SSW 5.8 mph 5.8 mph 63 % 0 in
16:28 66 °F 54 °F 30.2 in SW 4.6 mph 4.6 mph 65 % 0 in
16:33 65.8 °F 53.8 °F 30.2 in SW 5.8 mph 5.8 mph 65 % 0 in
16:38 65.1 °F 53.1 °F 30.2 in WSW 6.9 mph 6.9 mph 65 % 0 in
16:43 64.9 °F 53.2 °F 30.2 in South 3.5 mph 3.6 mph 66 % 0 in
16:48 64.8 °F 53.1 °F 30.2 in SW 9.2 mph 9.2 mph 66 % 0 in
16:53 64.6 °F 53.1 °F 30.2 in WSW 4.6 mph 4.6 mph 66 % 0 in
16:58 64.2 °F 53.1 °F 30.2 in SW 5.8 mph 5.8 mph 67 % 0 in
17:03 64.2 °F 53.1 °F 30.2 in WSW 5.8 mph 5.8 mph 67 % 0 in
17:08 64 °F 52.9 °F 30.2 in SSW 3.3 mph 3.3 mph 67 % 0 in
17:13 63.7 °F 52.9 °F 30.2 in SW 4.6 mph 4.6 mph 68 % 0 in
17:18 63.3 °F 52.5 °F 30.2 in SSW 5.8 mph 5.8 mph 68 % 0 in
17:23 63.1 °F 52.3 °F 30.2 in SW 4.6 mph 4.6 mph 68 % 0 in
17:28 62.8 °F 52.5 °F 30.2 in SW 4.6 mph 4.6 mph 69 % 0 in
17:33 62.6 °F 52.7 °F 30.2 in SW 4.6 mph 4.6 mph 70 % 0 in
17:38 62.2 °F 52.7 °F 30.2 in WSW 3.5 mph 3.5 mph 71 % 0 in
17:43 62.1 °F 52.9 °F 30.2 in WSW 2.3 mph 2.3 mph 72 % 0 in
17:48 61.9 °F 52.9 °F 30.2 in SW 4.6 mph 4.6 mph 72 % 0 in
17:53 61.7 °F 53.1 °F 30.2 in SW 2.3 mph 2.3 mph 73 % 0 in
17:58 61.5 °F 52.9 °F 30.2 in SW 2.4 mph 2.4 mph 73 % 0 in
18:03 61.3 °F 53.1 °F 30.2 in WSW 2.3 mph 2.3 mph 74 % 0 in
18:08 61.2 °F 52.9 °F 30.2 in WSW 2.3 mph 2.3 mph 74 % 0 in
18:13 61 °F 52.5 °F 30.2 in WSW 2.3 mph 2.3 mph 74 % 0 in
18:15 56.1 °F 51.6 °F 30.2 in Calm     85 % 0 in
18:18 60.8 °F 52.9 °F 30.2 in WSW 1.4 mph 1.4 mph 75 % 0 in
18:23 60.8 °F 52.9 °F 30.2 in SW 1.2 mph   75 % 0 in
18:25 56.1 °F 51.6 °F 30.2 in Calm   1 mph 85 % 0 in
18:28 60.6 °F 53.1 °F 30.2 in SW 1.2 mph   76 % 0 in
18:33 60.4 °F 52.9 °F 30.2 in WSW 1.2 mph   76 % 0 in
18:35 56.3 °F 51.8 °F 30.2 in Calm     85 % 0 in
18:38 60.3 °F 52.7 °F 30.2 in Calm     76 % 0 in
18:43 60.1 °F 52.5 °F 30.2 in Calm     76 % 0 in
18:45 55.9 °F 51.4 °F 30.2 in Calm   2 mph 85 % 0 in
18:48 60.1 °F 52.9 °F 30.2 in WSW 1.6 mph 1.6 mph 77 % 0 in
18:53 60.1 °F 52.9 °F 30.2 in West 1.6 mph 1.6 mph 77 % 0 in
18:55 55.8 °F 51.3 °F 30.2 in Calm   2 mph 85 % 0 in
18:58 60.1 °F 52.9 °F 30.2 in West 2.3 mph 2.3 mph 77 % 0 in
19:03 59.9 °F 52.7 °F 30.2 in WSW 1.2 mph 1.2 mph 77 % 0 in
19:05 55.8 °F 51.6 °F 30.2 in Calm   2 mph 86 % 0 in
19:08 59.9 °F 53.1 °F 30.2 in Calm     78 % 0 in
19:13 59.7 °F 52.9 °F 30.2 in Calm     78 % 0 in
19:15 55.8 °F 51.6 °F 30.2 in Calm     86 % 0 in
19:18 59.4 °F 52.5 °F 30.2 in Calm     78 % 0 in
19:23 59.2 °F 52.3 °F 30.2 in Calm     78 % 0 in
19:25 55.6 °F 51.4 °F 30.2 in NE 1 mph 2 mph 86 % 0 in
19:28 59.2 °F 52.7 °F 30.2 in Calm     79 % 0 in
19:33 59.2 °F 52.7 °F 30.2 in Calm     79 % 0 in
19:35 55.6 °F 51.4 °F 30.2 in Calm   2 mph 86 % 0 in
19:38 59 °F 52.5 °F 30.2 in Calm     79 % 0 in
19:43 58.8 °F 52.3 °F 30.2 in Calm     79 % 0 in
19:45 55.4 °F 51.6 °F 30.2 in Calm     87 % 0 in
19:48 58.8 °F 52.3 °F 30.2 in West 0.9 mph   79 % 0 in
19:53 58.8 °F 52.3 °F 30.2 in West 1.4 mph 1.4 mph 79 % 0 in
19:55 55.4 °F 51.6 °F 30.2 in Calm   2 mph 87 % 0 in
19:58 58.8 °F 52.3 °F 30.2 in Calm     79 % 0 in
20:03 58.6 °F 52.5 °F 30.2 in Calm     80 % 0 in
20:05 55.4 °F 51.6 °F 30.2 in Calm     87 % 0 in
20:08 58.8 °F 52.7 °F 30.2 in Calm     80 % 0 in
20:13 58.8 °F 52.7 °F 30.2 in Calm     80 % 0 in
20:15 55.6 °F 51.8 °F 30.2 in Calm     87 % 0 in
20:18 58.8 °F 52.7 °F 30.2 in Calm     80 % 0 in
20:23 58.8 °F 52.7 °F 30.2 in Calm     80 % 0 in
20:25 55.6 °F 51.8 °F 30.2 in Calm   2 mph 87 % 0 in
20:28 58.6 °F 52.5 °F 30.2 in Calm     80 % 0 in
20:33 58.3 °F 52.2 °F 30.2 in West 1.2 mph 1.2 mph 80 % 0 in
20:35 55.6 °F 51.8 °F 30.2 in SW 1 mph 2 mph 87 % 0 in
20:38 58.1 °F 52 °F 30.2 in Calm     80 % 0 in
20:43 58.1 °F 52 °F 30.2 in Calm     80 % 0 in
20:45 55.6 °F 51.8 °F 30.2 in Calm     87 % 0 in
20:48 57.9 °F 51.8 °F 30.2 in Calm     80 % 0 in
20:53 57.7 °F 51.6 °F 30.2 in Calm     80 % 0 in
20:55 55.4 °F 51.6 °F 30.2 in Calm   2 mph 87 % 0 in
20:58 57.7 °F 52 °F 30.2 in Calm     81 % 0 in
21:03 57.9 °F 51.8 °F 30.2 in West 1.2 mph 1.2 mph 80 % 0 in
21:05 55.2 °F 51.6 °F 30.2 in Calm     88 % 0 in
21:08 57.9 °F 52.2 °F 30.2 in Calm     81 % 0 in
21:13 57.7 °F 52 °F 30.2 in Calm     81 % 0 in
21:15 55 °F 51.4 °F 30.2 in Calm     88 % 0 in
21:18 57.7 °F 52 °F 30.2 in Calm     81 % 0 in
21:23 57.6 °F 52.2 °F 30.2 in Calm     82 % 0 in
21:25 54.9 °F 51.4 °F 30.2 in Calm   1 mph 88 % 0 in
21:28 57.4 °F 52 °F 30.2 in Calm     82 % 0 in
21:33 57.2 °F 51.8 °F 30.2 in Calm     82 % 0 in
21:35 54.9 °F 51.4 °F 30.2 in Calm   1 mph 88 % 0 in
21:38 57.2 °F 51.8 °F 30.2 in Calm     82 % 0 in
21:43 57.2 °F 51.8 °F 30.2 in Calm     82 % 0 in
21:45 54.7 °F 51.3 °F 30.2 in Calm     88 % 0 in
21:48 57 °F 51.6 °F 30.2 in Calm     82 % 0 in
21:53 57.2 °F 51.8 °F 30.2 in West 1.2 mph 1.2 mph 82 % 0 in
21:55 54.7 °F 51.3 °F 30.2 in West 2 mph 2 mph 88 % 0 in
21:58 57.2 °F 52.2 °F 30.2 in Calm     83 % 0 in
22:03 57 °F 52 °F 30.2 in Calm     83 % 0 in
22:05 54.7 °F 51.3 °F 30.2 in North 1 mph 2 mph 88 % 0 in
22:08 57 °F 52 °F 30.2 in Calm     83 % 0 in
22:13 57 °F 52 °F 30.2 in Calm     83 % 0 in
22:15 54.5 °F 51.3 °F 30.2 in Calm   1 mph 89 % 0 in
22:18 57 °F 52 °F 30.2 in Calm     83 % 0 in
22:23 57.2 °F 52.2 °F 30.2 in Calm     83 % 0 in
22:25 54.5 °F 51.3 °F 30.2 in Calm   1 mph 89 % 0 in
22:28 57.2 °F 52.2 °F 30.2 in WSW 2.3 mph 2.3 mph 83 % 0 in
22:33 57.4 °F 52.3 °F 30.2 in WSW 1.2 mph 1.2 mph 83 % 0 in
22:35 53.8 °F 50 °F 30.2 in West 2 mph 3 mph 87 % 0 in
22:38 57.2 °F 52.2 °F 30.2 in Calm     83 % 0 in
22:43 57.2 °F 52.2 °F 30.2 in Calm     83 % 0 in
22:45 53.8 °F 50.4 °F 30.2 in West 2 mph 3 mph 88 % 0 in
22:48 57.2 °F 52.2 °F 30.2 in WSW 1.4 mph 1.4 mph 83 % 0 in
22:53 57.2 °F 52.2 °F 30.2 in Calm     83 % 0 in
22:55 53.6 °F 49.8 °F 30.2 in SW 2 mph 4 mph 87 % 0 in
22:58 57.2 °F 52.3 °F 30.2 in SE 1.4 mph 1.4 mph 84 % 0 in
23:03 57 °F 52.2 °F 30.2 in Calm     84 % 0 in
23:05 54 °F 50.7 °F 30.2 in Calm   2 mph 89 % 0 in
23:08 57 °F 52.2 °F 30.2 in Calm     84 % 0 in
23:13 57.2 °F 52.3 °F 30.2 in Calm     84 % 0 in
23:15 53.8 °F 50.5 °F 30.2 in Calm     89 % 0 in
23:18 57.2 °F 52.3 °F 30.2 in Calm     84 % 0 in
23:23 56.8 °F 52.2 °F 30.2 in SW 1.2 mph   84 % 0 in
23:25 53.8 °F 50.5 °F 30.2 in WSW 1 mph 2 mph 89 % 0 in
23:28 56.8 °F 52.2 °F 30.2 in WNW 1.2 mph   84 % 0 in
23:33 56.8 °F 52.2 °F 30.2 in Calm     84 % 0 in
23:35 53.8 °F 50.5 °F 30.2 in Calm   1 mph 89 % 0 in
23:38 56.8 °F 52.2 °F 30.2 in Calm     84 % 0 in
23:43 56.8 °F 52.2 °F 30.2 in Calm     84 % 0 in
23:45 54 °F 50.7 °F 30.2 in Calm     89 % 0 in
23:48 56.8 °F 52.2 °F 30.2 in Calm     84 % 0 in
23:53 56.7 °F 52 °F 30.2 in Calm     84 % 0 in
23:55 53.8 °F 50.5 °F 30.2 in WSW 1 mph 1 mph 89 % 0 in
23:58 56.7 °F 52.2 °F 30.2 in Calm     85 % 0 in
Meteo Sesrovires
Elogis d' Weather Underground - 3.5 mb

Guio original per  Jim McMurry - jmcmurry@mwt.net Adaptat per a la plantilla per  Wim van der Kuil - Leuven-Template.eu

Trobareu la nostra informacio del temps tambe a:

Weather Underground

AWEKAS